Time;durP1;ratioP1;P1;durP2;ratioP2;P2;SDS_P1;SDS_P2;PMS_P1;PMS_P2;Temp;Humidity;BMP_temperature;BMP_pressure;BME280_temperature;BME280_humidity;BME280_pressure;Samples;Min_cycle;Max_cycle;Signal;HPM_P1;HPM_P2
2022/01/13 00:00:34;;;;;;;13.88;6.10;;;5.40;53.10;;;;;;6283480;28;20032;-82
2022/01/13 00:03:35;;;;;;;17.13;6.10;;;5.40;53.20;;;;;;6287441;28;20032;-82
2022/01/13 00:06:37;;;;;;;15.38;6.88;;;5.40;53.20;;;;;;6295381;28;20035;-82
2022/01/13 00:09:38;;;;;;;16.77;7.13;;;5.40;53.20;;;;;;6296790;28;20043;-83
2022/01/13 00:12:42;;;;;;;15.23;6.40;;;5.40;53.20;;;;;;6262392;28;20056;-83
2022/01/13 00:16:01;;;;;;;16.20;8.10;;;5.30;53.20;;;;;;6280851;28;20043;-83
2022/01/13 00:25:21;;;;;;;12.95;7.43;;;5.30;53.80;;;;;;6278795;28;20028;-82
2022/01/13 00:28:25;;;;;;;19.88;8.57;;;5.30;53.80;;;;;;6294965;28;20071;-82
2022/01/13 00:31:30;;;;;;;16.80;7.28;;;5.30;53.90;;;;;;6297127;28;20028;-82
2022/01/13 00:34:32;;;;;;;13.63;7.65;;;5.20;54.10;;;;;;6293638;28;20062;-82
2022/01/13 00:37:34;;;;;;;21.48;7.38;;;5.20;54.20;;;;;;6298943;28;20063;-82
2022/01/13 00:40:36;;;;;;;20.30;7.53;;;5.20;54.40;;;;;;6295945;28;20642;-82
2022/01/13 00:43:40;;;;;;;15.82;7.07;;;5.20;54.50;;;;;;6317931;28;20431;-82
2022/01/13 00:46:44;;;;;;;14.77;7.80;;;5.10;54.60;;;;;;6287142;28;20024;-83
2022/01/13 00:49:45;;;;;;;19.23;8.40;;;5.10;54.70;;;;;;6298035;28;20119;-82
2022/01/13 00:52:46;;;;;;;21.20;7.82;;;5.20;54.70;;;;;;6299655;28;20035;-84
2022/01/13 00:55:59;;;;;;;18.77;8.57;;;5.10;54.70;;;;;;6279095;28;20055;-82
2022/01/13 00:59:07;;;;;;;18.13;7.43;;;5.20;54.80;;;;;;6314423;28;20479;-83
2022/01/13 01:02:09;;;;;;;16.83;7.57;;;5.20;54.80;;;;;;6314700;28;20028;-82
2022/01/13 01:05:10;;;;;;;19.83;7.85;;;5.20;54.80;;;;;;6258154;28;20104;-82
2022/01/13 01:08:12;;;;;;;20.05;7.38;;;5.10;54.70;;;;;;6303746;28;20028;-81
2022/01/13 01:11:13;;;;;;;16.85;7.75;;;5.10;54.70;;;;;;6276352;28;20541;-82
2022/01/13 01:14:17;;;;;;;18.60;7.55;;;5.10;54.80;;;;;;6284050;28;20032;-83
2022/01/13 01:17:18;;;;;;;18.23;7.90;;;5.00;55.00;;;;;;6278609;28;20028;-82
2022/01/13 01:20:20;;;;;;;17.65;7.95;;;5.00;55.20;;;;;;6296062;28;20097;-82
2022/01/13 01:23:25;;;;;;;19.58;7.93;;;5.00;55.30;;;;;;6239623;28;20064;-81
2022/01/13 01:26:38;;;;;;;17.92;6.97;;;4.90;55.30;;;;;;6244910;28;20036;-82
2022/01/13 01:29:44;;;;;;;17.05;7.38;;;4.90;55.40;;;;;;6235051;28;20413;-81
2022/01/13 01:32:45;;;;;;;17.20;5.63;;;4.80;55.60;;;;;;6255672;28;20029;-83
2022/01/13 01:35:48;;;;;;;18.58;7.70;;;4.80;55.60;;;;;;6258933;28;20032;-82
2022/01/13 01:38:53;;;;;;;16.40;7.65;;;4.80;55.60;;;;;;6237773;28;20362;-81
2022/01/13 01:41:56;;;;;;;23.83;7.85;;;4.80;55.80;;;;;;6250304;28;20033;-82
2022/01/13 01:44:59;;;;;;;13.82;7.22;;;4.70;55.80;;;;;;6254528;28;20047;-82
2022/01/13 01:48:04;;;;;;;22.90;8.18;;;4.70;56.00;;;;;;6256419;28;20029;-81
2022/01/13 01:51:07;;;;;;;21.60;8.65;;;4.70;56.00;;;;;;6241652;28;20052;-82
2022/01/13 01:54:08;;;;;;;30.02;8.32;;;4.60;56.10;;;;;;6266001;28;20302;-82
2022/01/13 01:57:10;;;;;;;20.80;8.13;;;4.60;56.20;;;;;;6269312;28;20055;-81
2022/01/13 02:00:15;;;;;;;13.82;6.78;;;4.50;56.30;;;;;;6261883;28;20460;-82
2022/01/13 02:03:17;;;;;;;29.10;8.00;;;4.50;56.30;;;;;;6259422;28;20032;-82
2022/01/13 02:06:19;;;;;;;16.65;7.30;;;4.50;56.40;;;;;;6267718;28;20066;-81
2022/01/13 02:09:20;;;;;;;19.38;7.28;;;4.50;56.50;;;;;;6264466;28;20024;-82
2022/01/13 02:12:35;;;;;;;13.40;6.85;;;4.50;56.60;;;;;;6260070;28;20442;-82
2022/01/13 02:16:37;;;;;;;17.40;7.78;;;4.40;56.70;;;;;;6260742;28;20625;-84
2022/01/13 02:18:58;;;;;;;18.73;5.80;;;4.40;56.80;;;;;;6244198;28;20060;-83
2022/01/13 02:22:00;;;;;;;20.10;8.40;;;4.30;56.80;;;;;;6260713;28;20151;-84
2022/01/13 02:25:02;;;;;;;17.23;7.18;;;4.40;57.00;;;;;;6262847;28;20056;-83
2022/01/13 02:28:03;;;;;;;14.30;6.22;;;4.40;57.00;;;;;;6281077;28;20052;-83
2022/01/13 02:31:04;;;;;;;14.25;7.18;;;4.40;57.00;;;;;;6281035;28;20032;-82
2022/01/13 02:34:05;;;;;;;18.33;7.60;;;4.40;57.00;;;;;;6271304;28;20057;-82
2022/01/13 02:37:08;;;;;;;17.90;6.70;;;4.40;57.00;;;;;;6287796;28;20442;-82
2022/01/13 02:40:10;;;;;;;14.15;6.90;;;4.40;57.10;;;;;;6263570;28;20025;-82
2022/01/13 02:43:11;;;;;;;14.45;6.80;;;4.40;57.10;;;;;;6273676;28;20058;-82
2022/01/13 02:49:36;;;;;;;17.30;7.63;;;4.40;56.90;;;;;;6303458;28;20055;-82
2022/01/13 02:52:38;;;;;;;18.15;7.00;;;4.40;56.80;;;;;;6280227;28;20045;-82
2022/01/13 02:55:39;;;;;;;14.80;5.72;;;4.40;56.80;;;;;;6308293;28;20044;-82
2022/01/13 02:58:40;;;;;;;15.57;6.45;;;4.50;56.80;;;;;;6271886;28;20032;-83
2022/01/13 03:01:42;;;;;;;14.93;8.00;;;4.50;56.80;;;;;;6280827;28;20035;-83
2022/01/13 03:04:49;;;;;;;15.00;7.00;;;4.50;56.70;;;;;;6290393;28;20048;-82
2022/01/13 03:07:52;;;;;;;14.88;7.43;;;4.50;56.70;;;;;;6290899;28;20088;-82
2022/01/13 03:10:54;;;;;;;15.40;7.22;;;4.50;57.30;;;;;;6274170;28;20028;-83
2022/01/13 03:13:55;;;;;;;17.25;7.00;;;4.50;56.80;;;;;;6264536;28;20028;-83
2022/01/13 03:16:56;;;;;;;23.08;7.95;;;4.50;56.80;;;;;;6287450;28;20110;-84
2022/01/13 03:19:57;;;;;;;15.07;6.53;;;4.40;56.80;;;;;;6267272;28;20040;-83
2022/01/13 03:22:58;;;;;;;16.25;6.82;;;4.50;56.80;;;;;;6269887;28;20042;-84
2022/01/13 03:25:59;;;;;;;19.23;7.57;;;4.40;56.80;;;;;;6266759;28;20044;-83
2022/01/13 03:32:11;;;;;;;13.05;6.70;;;4.50;56.90;;;;;;6267842;28;20028;-81
2022/01/13 03:35:12;;;;;;;22.13;8.25;;;4.40;56.90;;;;;;6265269;28;20039;-82
2022/01/13 03:38:13;;;;;;;17.20;5.60;;;4.40;57.00;;;;;;6271375;28;20168;-82
2022/01/13 03:41:14;;;;;;;13.70;6.13;;;4.40;57.00;;;;;;6286944;28;20073;-84
2022/01/13 03:44:27;;;;;;;18.23;6.35;;;4.40;57.10;;;;;;6274587;28;20118;-82
2022/01/13 03:47:28;;;;;;;13.30;6.47;;;4.30;57.10;;;;;;6262647;28;20582;-83
2022/01/13 03:50:29;;;;;;;12.93;6.78;;;4.30;57.20;;;;;;6278200;28;20464;-82
2022/01/13 03:54:10;;;;;;;15.98;6.75;;;4.20;57.30;;;;;;6268676;28;20066;-82
2022/01/13 03:57:28;;;;;;;15.18;6.47;;;4.20;57.40;;;;;;6273013;28;20029;-81
2022/01/13 04:00:58;;;;;;;12.23;5.78;;;4.20;57.50;;;;;;6296672;28;20029;-83
2022/01/13 04:03:59;;;;;;;18.00;6.50;;;4.10;57.60;;;;;;6272305;28;20127;-83
2022/01/13 04:07:12;;;;;;;13.73;4.70;;;4.10;57.70;;;;;;6295178;28;20028;-82
2022/01/13 04:10:50;;;;;;;16.23;7.05;;;4.10;57.80;;;;;;6285407;28;20169;-82
2022/01/13 04:13:56;;;;;;;13.90;6.93;;;4.00;57.60;;;;;;6284419;28;20522;-83
2022/01/13 04:16:58;;;;;;;14.95;6.43;;;4.00;57.80;;;;;;6286771;28;20024;-81
2022/01/13 04:19:59;;;;;;;13.10;6.28;;;3.90;58.00;;;;;;6285039;28;20035;-81
2022/01/13 04:23:00;;;;;;;15.98;7.18;;;3.80;58.20;;;;;;6276846;28;20051;-82
2022/01/13 04:26:07;;;;;;;12.32;6.70;;;3.80;58.30;;;;;;6292082;28;20036;-82
2022/01/13 04:32:11;;;;;;;18.00;7.50;;;3.80;58.40;;;;;;6275645;28;20024;-82
2022/01/13 04:35:12;;;;;;;24.30;7.00;;;3.80;58.40;;;;;;6297200;28;20062;-82
2022/01/13 04:38:13;;;;;;;21.88;9.10;;;3.80;58.50;;;;;;6315366;28;20036;-82
2022/01/13 04:41:22;;;;;;;16.23;6.60;;;3.80;58.40;;;;;;6299286;28;20050;-83
2022/01/13 04:44:26;;;;;;;14.88;7.57;;;3.80;58.50;;;;;;6299526;28;20031;-85
2022/01/13 04:47:27;;;;;;;17.08;6.63;;;3.80;58.50;;;;;;6301799;28;20636;-82
2022/01/13 04:50:29;;;;;;;14.70;7.70;;;3.70;58.50;;;;;;6297718;28;20031;-83
2022/01/13 04:53:30;;;;;;;16.40;7.18;;;3.60;58.90;;;;;;6300545;28;20432;-81
2022/01/13 04:56:39;;;;;;;17.42;7.00;;;3.60;58.80;;;;;;6316891;28;20020;-83
2022/01/13 04:59:43;;;;;;;20.15;8.52;;;3.60;59.00;;;;;;6311438;28;20020;-81
2022/01/13 05:02:44;;;;;;;12.40;6.15;;;3.60;59.00;;;;;;6296923;28;20679;-81
2022/01/13 05:05:45;;;;;;;18.90;8.63;;;3.60;59.00;;;;;;6277408;28;20027;-82
2022/01/13 05:08:47;;;;;;;16.55;7.63;;;3.60;59.00;;;;;;6299680;28;20020;-80
2022/01/13 05:11:48;;;;;;;14.23;6.45;;;3.60;59.10;;;;;;6277331;28;20020;-82
2022/01/13 05:14:54;;;;;;;12.10;6.47;;;3.60;59.10;;;;;;6245570;28;20032;-82
2022/01/13 05:21:24;;;;;;;19.35;7.43;;;3.60;59.00;;;;;;6279455;28;20062;-84
2022/01/13 05:24:27;;;;;;;17.40;6.65;;;3.50;59.10;;;;;;6267664;28;20056;-84
2022/01/13 05:27:27;;;;;;;16.48;7.07;;;3.50;59.20;;;;;;6263917;28;20028;-84
2022/01/13 05:30:29;;;;;;;19.30;8.68;;;3.50;59.20;;;;;;6264704;28;20456;-82
2022/01/13 05:33:30;;;;;;;18.58;8.00;;;3.50;59.20;;;;;;6267996;28;20025;-80
2022/01/13 05:36:31;;;;;;;14.18;5.68;;;3.60;59.20;;;;;;6275107;28;20522;-82
2022/01/13 05:39:32;;;;;;;17.38;6.97;;;3.60;59.00;;;;;;6262066;28;20032;-82
2022/01/13 05:42:33;;;;;;;26.50;9.20;;;3.60;59.00;;;;;;6282818;28;20032;-82
2022/01/13 05:45:34;;;;;;;12.88;6.18;;;3.60;59.10;;;;;;6300010;28;20040;-81
2022/01/13 05:48:35;;;;;;;17.95;8.27;;;3.50;59.00;;;;;;6298955;28;20020;-81
2022/01/13 05:51:36;;;;;;;17.63;7.32;;;3.50;59.00;;;;;;6300017;28;20037;-81
2022/01/13 05:54:38;;;;;;;16.63;7.35;;;3.50;59.20;;;;;;6291670;28;20051;-81
2022/01/13 05:57:40;;;;;;;16.77;7.85;;;3.50;59.20;;;;;;6299189;28;20035;-82
2022/01/13 06:00:41;;;;;;;16.95;7.70;;;3.50;59.20;;;;;;6287219;28;20024;-81
2022/01/13 06:03:45;;;;;;;21.80;7.63;;;3.50;59.20;;;;;;6284874;28;20032;-82
2022/01/13 06:06:46;;;;;;;16.35;8.35;;;3.60;59.30;;;;;;6274132;28;20508;-81
2022/01/13 06:09:47;;;;;;;14.93;7.15;;;3.60;59.10;;;;;;6292870;28;20038;-82
2022/01/13 06:12:50;;;;;;;12.27;5.93;;;3.50;59.00;;;;;;6258660;28;20031;-81
2022/01/13 06:15:51;;;;;;;20.67;7.88;;;3.50;59.10;;;;;;6272138;28;20035;-84
2022/01/13 06:18:52;;;;;;;15.95;7.00;;;3.50;59.20;;;;;;6288661;28;20361;-82
2022/01/13 06:21:54;;;;;;;12.20;6.50;;;3.50;59.10;;;;;;6290950;28;20044;-82
2022/01/13 06:24:58;;;;;;;18.60;7.72;;;3.50;59.20;;;;;;6274332;28;20600;-81
2022/01/13 06:27:59;;;;;;;22.02;7.28;;;3.60;59.20;;;;;;6257237;28;20457;-81
2022/01/13 06:31:01;;;;;;;19.33;8.57;;;3.60;59.20;;;;;;6277957;28;20060;-82
2022/01/13 06:34:02;;;;;;;15.93;7.18;;;3.60;59.10;;;;;;6267792;28;20176;-81
2022/01/13 06:37:04;;;;;;;26.55;8.82;;;3.60;59.10;;;;;;6306664;28;20035;-82
2022/01/13 06:40:06;;;;;;;19.30;6.97;;;3.50;59.10;;;;;;6298012;28;20031;-81
2022/01/13 06:43:08;;;;;;;21.67;8.00;;;3.60;59.20;;;;;;6312787;28;20105;-81
2022/01/13 06:46:12;;;;;;;15.10;5.85;;;3.60;59.20;;;;;;6294367;28;20035;-82
2022/01/13 06:49:13;;;;;;;19.75;8.02;;;3.60;59.20;;;;;;6289765;28;20020;-81
2022/01/13 06:52:14;;;;;;;13.73;6.65;;;3.60;59.00;;;;;;6314875;28;20070;-82
2022/01/13 06:55:15;;;;;;;11.40;6.20;;;3.60;59.00;;;;;;6299190;28;20035;-81
2022/01/13 06:58:17;;;;;;;12.25;6.97;;;3.60;59.00;;;;;;6279042;28;20111;-81
2022/01/13 07:01:20;;;;;;;14.38;7.53;;;3.60;59.00;;;;;;6317179;28;20620;-83
2022/01/13 07:04:22;;;;;;;14.05;7.07;;;3.50;59.10;;;;;;6289453;28;20620;-83
2022/01/13 07:07:24;;;;;;;15.98;7.65;;;3.50;59.10;;;;;;6295250;28;20042;-83
2022/01/13 07:10:25;;;;;;;16.38;5.63;;;3.50;59.10;;;;;;6281083;28;20138;-83
2022/01/13 07:13:26;;;;;;;16.73;5.60;;;3.60;59.20;;;;;;6299784;28;20028;-82
2022/01/13 07:16:27;;;;;;;17.45;6.90;;;3.60;59.10;;;;;;6298087;28;20141;-83
2022/01/13 07:19:29;;;;;;;18.52;7.78;;;3.60;59.00;;;;;;6278319;28;20096;-82
2022/01/13 07:22:30;;;;;;;42.08;10.35;;;3.60;59.00;;;;;;6289986;28;20056;-83
2022/01/13 07:25:31;;;;;;;14.95;7.63;;;3.60;59.10;;;;;;6271399;28;20041;-83
2022/01/13 07:28:32;;;;;;;14.98;7.03;;;3.60;59.10;;;;;;6269627;28;20049;-82
2022/01/13 07:31:35;;;;;;;16.05;6.68;;;3.60;59.00;;;;;;6260465;28;20472;-83
2022/01/13 07:34:36;;;;;;;15.20;7.13;;;3.60;59.10;;;;;;6265594;28;20086;-83
2022/01/13 07:37:39;;;;;;;22.98;8.43;;;3.60;59.20;;;;;;6290685;28;20064;-82
2022/01/13 07:40:40;;;;;;;17.65;8.65;;;3.60;59.20;;;;;;6286977;28;20040;-82
2022/01/13 07:43:47;;;;;;;15.85;6.35;;;3.60;59.20;;;;;;6274779;28;20044;-82
2022/01/13 07:46:48;;;;;;;19.73;7.55;;;3.60;59.10;;;;;;6296367;28;20035;-85
2022/01/13 07:49:49;;;;;;;15.20;7.22;;;3.50;59.10;;;;;;6290989;28;20020;-82
2022/01/13 07:52:51;;;;;;;28.90;6.93;;;3.50;59.20;;;;;;6290006;28;20024;-83
2022/01/13 07:55:54;;;;;;;17.27;7.47;;;3.50;59.30;;;;;;6301597;28;20064;-82
2022/01/13 07:58:56;;;;;;;18.65;7.80;;;3.50;59.30;;;;;;6290637;28;20469;-82
2022/01/13 08:02:00;;;;;;;16.05;6.72;;;3.50;59.30;;;;;;6290504;28;20563;-82
2022/01/13 08:05:01;;;;;;;19.67;7.85;;;3.50;59.40;;;;;;6254460;28;20097;-82
2022/01/13 08:08:04;;;;;;;17.58;8.15;;;3.50;59.40;;;;;;6269122;28;20029;-83
2022/01/13 08:11:06;;;;;;;17.92;7.22;;;3.50;59.40;;;;;;6274330;28;20052;-83
2022/01/13 08:14:08;;;;;;;21.58;8.70;;;3.50;59.30;;;;;;6251830;28;20028;-83
2022/01/13 08:17:18;;;;;;;11.35;5.90;;;3.50;59.40;;;;;;6277446;28;20021;-82
2022/01/13 08:20:19;;;;;;;12.88;6.20;;;3.60;59.50;;;;;;6272009;28;20462;-84
2022/01/13 08:23:20;;;;;;;18.23;7.20;;;3.60;59.30;;;;;;6252459;28;20127;-83
2022/01/13 08:26:22;;;;;;;21.60;8.23;;;3.60;59.40;;;;;;6265875;28;20028;-83
2022/01/13 08:29:23;;;;;;;27.98;8.80;;;3.60;59.40;;;;;;6274036;28;20032;-83
2022/01/13 08:32:25;;;;;;;29.55;8.05;;;3.70;59.20;;;;;;6257192;28;22731;-83
2022/01/13 08:35:28;;;;;;;32.88;7.85;;;3.70;59.20;;;;;;6292072;28;20574;-83
2022/01/13 08:38:30;;;;;;;13.52;7.95;;;3.70;59.10;;;;;;6268401;28;20052;-82
2022/01/13 08:41:31;;;;;;;29.27;7.50;;;3.80;59.20;;;;;;6276036;28;20086;-82
2022/01/13 08:44:32;;;;;;;21.60;8.18;;;3.90;59.00;;;;;;6291294;28;20520;-82
2022/01/13 08:47:33;;;;;;;32.28;8.63;;;3.90;58.90;;;;;;6272085;28;20112;-83
2022/01/13 08:50:35;;;;;;;20.60;8.60;;;4.10;58.90;;;;;;6287204;28;20389;-82
2022/01/13 08:53:38;;;;;;;23.48;8.10;;;4.20;58.60;;;;;;6274178;28;20358;-82
2022/01/13 08:56:39;;;;;;;18.67;8.68;;;4.30;58.30;;;;;;6274422;28;20439;-83
2022/01/13 08:59:40;;;;;;;28.65;8.55;;;4.40;58.20;;;;;;6285866;28;20032;-83
2022/01/13 09:02:43;;;;;;;22.90;8.50;;;4.50;58.00;;;;;;6288819;28;20494;-83
2022/01/13 09:05:44;;;;;;;18.63;8.18;;;4.60;57.80;;;;;;6269888;28;20047;-83
2022/01/13 09:08:46;;;;;;;16.55;7.25;;;4.70;58.10;;;;;;6263671;28;20033;-83
2022/01/13 09:11:47;;;;;;;14.48;7.82;;;4.80;57.20;;;;;;6270528;28;20089;-83
2022/01/13 09:14:50;;;;;;;17.55;7.75;;;4.90;56.90;;;;;;6266021;28;20125;-85
2022/01/13 09:17:53;;;;;;;13.45;6.72;;;4.90;56.50;;;;;;6264912;28;20609;-82
2022/01/13 09:20:54;;;;;;;17.70;7.53;;;5.00;56.20;;;;;;6264419;28;20032;-82
2022/01/13 09:23:56;;;;;;;15.75;7.10;;;4.90;56.20;;;;;;6288945;28;20079;-83
2022/01/13 09:26:57;;;;;;;12.43;6.10;;;5.00;55.50;;;;;;6272982;28;20093;-82
2022/01/13 09:29:58;;;;;;;18.08;6.97;;;4.90;55.20;;;;;;6282537;28;20437;-82
2022/01/13 09:33:00;;;;;;;16.98;7.82;;;4.90;55.10;;;;;;6272863;28;20101;-83
2022/01/13 09:36:04;;;;;;;23.73;8.90;;;4.90;55.10;;;;;;6304380;28;20655;-83
2022/01/13 09:39:07;;;;;;;20.08;6.47;;;4.90;55.10;;;;;;6299975;28;20052;-82
2022/01/13 09:42:09;;;;;;;18.67;7.88;;;4.90;55.10;;;;;;6296080;28;20023;-83
2022/01/13 09:45:13;;;;;;;17.23;8.20;;;4.80;55.00;;;;;;6296949;28;20032;-84
2022/01/13 09:48:14;;;;;;;32.08;14.55;;;5.00;55.10;;;;;;6297843;28;20115;-84
2022/01/13 09:51:15;;;;;;;15.60;7.32;;;5.00;55.00;;;;;;6315440;28;20047;-83
2022/01/13 09:54:18;;;;;;;23.95;8.65;;;5.00;54.70;;;;;;6294292;28;20043;-84
2022/01/13 09:57:19;;;;;;;23.75;10.40;;;5.00;54.60;;;;;;6299557;28;20453;-84
2022/01/13 10:00:25;;;;;;;22.70;8.25;;;5.10;54.80;;;;;;6297867;28;20093;-83
2022/01/13 10:03:26;;;;;;;18.15;8.80;;;5.20;55.00;;;;;;6294494;28;20079;-83
2022/01/13 10:06:28;;;;;;;15.90;7.90;;;5.20;55.50;;;;;;6270866;28;20078;-83
2022/01/13 10:09:53;;;;;;;22.38;9.50;;;5.40;55.00;;;;;;6296464;28;20022;-83
2022/01/13 10:13:08;;;;;;;30.15;11.23;;;5.60;55.00;;;;;;6284288;28;20024;-83
2022/01/13 10:16:24;;;;;;;24.08;10.80;;;5.90;54.70;;;;;;6264222;28;20050;-83
2022/01/13 10:19:34;;;;;;;32.53;14.57;;;6.10;53.80;;;;;;6262483;28;20503;-83
2022/01/13 10:22:36;;;;;;;27.67;10.77;;;6.30;53.30;;;;;;6262664;28;20513;-83
2022/01/13 10:25:40;;;;;;;24.88;9.93;;;6.40;52.60;;;;;;6278385;28;20032;-83
2022/01/13 10:28:51;;;;;;;21.48;7.88;;;6.40;52.40;;;;;;6271129;28;20405;-83
2022/01/13 10:31:52;;;;;;;16.33;7.63;;;6.30;52.30;;;;;;6270331;28;20081;-83
2022/01/13 10:35:03;;;;;;;20.25;9.13;;;6.40;52.20;;;;;;6294872;28;20036;-84
2022/01/13 10:38:05;;;;;;;21.60;8.48;;;6.40;52.00;;;;;;6277988;28;20042;-84
2022/01/13 10:41:29;;;;;;;20.33;8.95;;;6.50;51.80;;;;;;6303954;28;20111;-83
2022/01/13 10:44:30;;;;;;;22.38;9.20;;;6.50;51.90;;;;;;6300391;28;20039;-83
2022/01/13 10:47:32;;;;;;;26.83;8.88;;;6.70;51.40;;;;;;6310958;28;20024;-84
2022/01/13 10:50:39;;;;;;;36.28;14.45;;;6.90;51.30;;;;;;6318187;28;20035;-85
2022/01/13 10:53:43;;;;;;;35.63;10.00;;;7.10;51.20;;;;;;6300500;28;20028;-83
2022/01/13 10:56:44;;;;;;;20.08;9.32;;;7.40;50.40;;;;;;6323501;28;20084;-83
2022/01/13 10:59:45;;;;;;;22.73;10.50;;;7.60;49.80;;;;;;6304786;28;20024;-84
2022/01/13 11:03:09;;;;;;;21.92;9.48;;;7.90;49.50;;;;;;6299809;28;20454;-84
2022/01/13 11:06:12;;;;;;;26.95;10.63;;;8.20;49.00;;;;;;6282751;28;20143;-85
2022/01/13 11:09:17;;;;;;;30.05;10.45;;;8.60;48.30;;;;;;6285684;28;20643;-84
2022/01/13 11:12:29;;;;;;;27.20;13.60;;;8.90;47.70;;;;;;6277898;28;20360;-85
2022/01/13 11:15:34;;;;;;;23.25;8.95;;;9.30;47.10;;;;;;6265245;28;20085;-84
2022/01/13 11:18:35;;;;;;;24.60;10.77;;;9.80;45.70;;;;;;6280623;28;20070;-85
2022/01/13 11:21:38;;;;;;;27.75;11.38;;;10.00;44.70;;;;;;6301821;28;20671;-83
2022/01/13 11:24:43;;;;;;;29.63;9.75;;;10.50;44.20;;;;;;6289135;28;20128;-84
2022/01/13 11:27:45;;;;;;;23.70;11.50;;;10.80;43.40;;;;;;6287140;28;20040;-86
2022/01/13 11:30:49;;;;;;;22.45;9.90;;;11.10;42.20;;;;;;6307260;28;20513;-83
2022/01/13 11:33:51;;;;;;;22.27;8.75;;;11.50;42.20;;;;;;6285275;28;20476;-84
2022/01/13 11:36:53;;;;;;;29.80;12.90;;;11.90;40.60;;;;;;6306890;28;20024;-84
2022/01/13 11:39:55;;;;;;;29.23;12.52;;;12.10;39.40;;;;;;6272385;28;20056;-84
2022/01/13 11:42:58;;;;;;;20.40;9.18;;;12.40;39.20;;;;;;6302259;28;20024;-84
2022/01/13 11:46:29;;;;;;;29.48;10.70;;;12.70;38.50;;;;;;6318323;28;20058;-84
2022/01/13 11:49:43;;;;;;;32.22;13.00;;;12.90;38.00;;;;;;6186931;28;20072;-84
2022/01/13 11:52:55;;;;;;;29.45;11.25;;;13.10;37.50;;;;;;6199812;28;20068;-84
2022/01/13 11:56:06;;;;;;;22.45;10.20;;;13.30;37.30;;;;;;6203195;28;20034;-85
2022/01/13 11:59:10;;;;;;;24.70;11.25;;;13.70;37.30;;;;;;6198759;28;20044;-84
2022/01/13 12:02:26;;;;;;;31.98;12.25;;;13.60;36.30;;;;;;6188979;28;20109;-84
2022/01/13 12:05:29;;;;;;;29.42;13.77;;;12.90;37.00;;;;;;6187595;28;20053;-82
2022/01/13 12:08:44;;;;;;;31.02;12.73;;;12.30;38.00;;;;;;6191470;28;20161;-83
2022/01/13 12:11:55;;;;;;;25.73;11.02;;;11.50;39.10;;;;;;6190053;28;20033;-85
2022/01/13 12:15:29;;;;;;;21.40;10.35;;;10.90;40.40;;;;;;6189357;28;20193;-84
2022/01/13 12:19:01;;;;;;;26.23;10.93;;;10.30;41.30;;;;;;6122005;28;20051;-83
2022/01/13 12:22:11;;;;;;;19.67;10.07;;;9.80;42.00;;;;;;6107973;28;20066;-85
2022/01/13 12:25:17;;;;;;;19.73;9.07;;;9.20;42.90;;;;;;6137883;28;20050;-84
2022/01/13 12:28:19;;;;;;;24.42;9.55;;;8.80;43.70;;;;;;6191648;28;20064;-85
2022/01/13 12:31:27;;;;;;;16.27;8.15;;;8.40;44.30;;;;;;6163809;28;20090;-83
2022/01/13 12:34:28;;;;;;;18.15;8.45;;;8.30;44.90;;;;;;6200860;28;20394;-87
2022/01/13 12:37:30;;;;;;;19.15;8.48;;;8.10;45.40;;;;;;6196653;28;20052;-83
2022/01/13 12:40:43;;;;;;;19.90;8.15;;;7.90;45.90;;;;;;6202326;28;20141;-83
2022/01/13 12:46:46;;;;;;;17.17;6.25;;;7.70;46.50;;;;;;6205083;28;20572;-84
2022/01/13 12:49:47;;;;;;;16.52;7.90;;;7.70;46.80;;;;;;6217497;28;20033;-84
2022/01/13 12:52:49;;;;;;;15.05;6.88;;;7.60;46.80;;;;;;6217088;28;20036;-83
2022/01/13 12:56:24;;;;;;;30.23;8.95;;;7.60;47.00;;;;;;6301455;28;20089;-85
2022/01/13 12:59:26;;;;;;;15.52;7.18;;;7.60;47.20;;;;;;6192913;28;20140;-85
2022/01/13 13:02:28;;;;;;;16.33;7.72;;;7.60;47.10;;;;;;6192090;28;20085;-83
2022/01/13 13:05:39;;;;;;;17.80;7.13;;;7.60;47.20;;;;;;6163854;28;20133;-83
2022/01/13 13:08:46;;;;;;;12.68;5.60;;;7.70;47.20;;;;;;6174971;28;20139;-86
2022/01/13 13:11:50;;;;;;;12.68;6.65;;;7.80;47.00;;;;;;6151633;28;20030;-84
2022/01/13 13:18:18;;;;;;;17.77;6.55;;;7.70;46.70;;;;;;6169083;28;20074;-83
2022/01/13 13:21:19;;;;;;;13.10;7.18;;;7.60;47.00;;;;;;6138675;28;20120;-85
2022/01/13 13:24:23;;;;;;;17.23;7.82;;;7.60;47.20;;;;;;6138205;28;20038;-85
2022/01/13 13:27:29;;;;;;;19.77;8.02;;;7.70;47.30;;;;;;6179402;28;20034;-83
2022/01/13 13:30:52;;;;;;;18.73;7.43;;;7.70;47.50;;;;;;6158510;28;20034;-84
2022/01/13 13:34:04;;;;;;;22.88;8.85;;;7.80;47.40;;;;;;6174022;28;20022;-84
2022/01/13 13:37:13;;;;;;;23.33;8.27;;;7.80;47.30;;;;;;6291720;28;20043;-84
2022/01/13 13:40:24;;;;;;;14.73;6.53;;;7.90;47.20;;;;;;6288457;28;20038;-84
2022/01/13 13:43:32;;;;;;;14.82;7.45;;;7.90;47.10;;;;;;6287502;28;20107;-85
2022/01/13 13:46:35;;;;;;;17.42;7.65;;;7.90;47.20;;;;;;6291598;28;20127;-84
2022/01/13 13:49:38;;;;;;;19.95;7.88;;;8.00;47.30;;;;;;6288111;28;20025;-85
2022/01/13 13:52:39;;;;;;;18.88;7.32;;;8.00;47.30;;;;;;6291845;28;20058;-84
2022/01/13 13:55:56;;;;;;;14.40;6.90;;;8.10;47.30;;;;;;6293088;28;20064;-85
2022/01/13 13:58:57;;;;;;;14.43;5.72;;;8.20;47.30;;;;;;6295594;28;20119;-86
2022/01/13 14:02:20;;;;;;;14.60;6.40;;;8.20;47.10;;;;;;6290359;28;20024;-85
2022/01/13 14:05:24;;;;;;;22.25;9.60;;;8.20;46.90;;;;;;6289130;28;20024;-85
2022/01/13 14:08:27;;;;;;;24.85;8.57;;;8.20;47.00;;;;;;6293095;28;20025;-84
2022/01/13 14:11:41;;;;;;;19.50;8.00;;;8.20;47.10;;;;;;6297106;28;20025;-83
2022/01/13 14:14:43;;;;;;;20.40;9.23;;;8.20;47.00;;;;;;6295837;28;20065;-82
2022/01/13 14:17:56;;;;;;;21.75;9.57;;;8.20;47.20;;;;;;6304026;28;20048;-84
2022/01/13 14:21:00;;;;;;;19.20;8.55;;;8.30;47.40;;;;;;6296252;28;20038;-83
2022/01/13 14:24:01;;;;;;;20.67;8.45;;;8.30;47.50;;;;;;6306971;28;20040;-83
2022/01/13 14:27:13;;;;;;;26.63;8.57;;;8.30;47.50;;;;;;6316181;28;20115;-85
2022/01/13 14:30:28;;;;;;;18.27;8.02;;;8.20;47.70;;;;;;6281683;28;20214;-85
2022/01/13 14:33:33;;;;;;;23.65;9.80;;;8.20;47.90;;;;;;6294209;28;20028;-85
2022/01/13 14:36:38;;;;;;;19.92;8.93;;;8.20;48.00;;;;;;6298316;28;20067;-83
2022/01/13 14:39:40;;;;;;;16.73;8.60;;;8.30;48.20;;;;;;6290624;28;20441;-84
2022/01/13 14:42:42;;;;;;;26.88;9.77;;;8.30;48.90;;;;;;6296489;28;20163;-84
2022/01/13 14:46:05;;;;;;;24.90;9.95;;;8.30;48.50;;;;;;6268113;28;20039;-84
2022/01/13 14:49:07;;;;;;;22.08;9.93;;;8.30;48.60;;;;;;6282197;28;20036;-83
2022/01/13 14:52:09;;;;;;;22.60;9.40;;;8.30;48.60;;;;;;6257123;28;20058;-82
2022/01/13 14:55:10;;;;;;;24.83;10.65;;;8.30;48.60;;;;;;6300480;28;20040;-84
2022/01/13 14:58:11;;;;;;;26.45;9.77;;;8.30;48.70;;;;;;6271540;28;20771;-83
2022/01/13 15:01:14;;;;;;;26.55;10.90;;;8.30;48.70;;;;;;6293909;28;20043;-85
2022/01/13 15:04:15;;;;;;;23.77;10.15;;;8.30;48.80;;;;;;6276479;28;20040;-84
2022/01/13 15:07:17;;;;;;;23.60;10.10;;;8.40;48.80;;;;;;6277906;28;20043;-84
2022/01/13 15:10:18;;;;;;;25.42;10.20;;;8.40;48.80;;;;;;6294575;28;20043;-83
2022/01/13 15:13:20;;;;;;;23.90;9.40;;;8.40;48.90;;;;;;6300432;28;20025;-83
2022/01/13 15:16:23;;;;;;;24.02;9.90;;;8.40;48.90;;;;;;6301557;28;20033;-85
2022/01/13 15:19:26;;;;;;;21.48;9.35;;;8.40;48.90;;;;;;6265757;28;20036;-85
2022/01/13 15:22:31;;;;;;;21.25;8.70;;;8.40;48.90;;;;;;6246664;28;20476;-83
2022/01/13 15:25:32;;;;;;;16.67;8.05;;;8.40;48.70;;;;;;6262256;28;20113;-83
2022/01/13 15:28:36;;;;;;;22.85;9.93;;;8.40;48.60;;;;;;6270177;28;20052;-83
2022/01/13 15:31:37;;;;;;;23.25;10.38;;;8.30;48.60;;;;;;6263881;28;20099;-83
2022/01/13 15:34:38;;;;;;;21.60;8.43;;;8.30;48.70;;;;;;6262538;28;20036;-83
2022/01/13 15:37:40;;;;;;;26.63;10.68;;;8.30;48.80;;;;;;6270522;28;20024;-83
2022/01/13 15:40:48;;;;;;;25.10;10.88;;;8.20;48.80;;;;;;6275491;28;20024;-83
2022/01/13 15:43:49;;;;;;;23.88;9.32;;;8.20;48.90;;;;;;6276578;28;20166;-84
2022/01/13 15:46:51;;;;;;;32.42;10.38;;;8.20;48.90;;;;;;6259671;28;20033;-83
2022/01/13 15:49:52;;;;;;;22.70;8.80;;;8.20;49.00;;;;;;6292003;28;20032;-84
2022/01/13 15:52:54;;;;;;;27.65;9.10;;;8.20;49.00;;;;;;6294103;28;20396;-83
2022/01/13 15:55:55;;;;;;;20.08;8.63;;;8.20;49.00;;;;;;6296640;28;20050;-84
2022/01/13 15:58:56;;;;;;;21.25;8.80;;;8.10;49.00;;;;;;6286778;28;20059;-82
2022/01/13 16:01:57;;;;;;;24.38;9.00;;;8.10;49.10;;;;;;6277814;28;20044;-84
2022/01/13 16:04:59;;;;;;;21.40;9.38;;;8.10;49.10;;;;;;6275409;28;20222;-83
2022/01/13 16:08:02;;;;;;;27.33;9.77;;;8.10;49.20;;;;;;6266077;28;20087;-85
2022/01/13 16:11:09;;;;;;;24.98;11.00;;;8.10;49.20;;;;;;6252727;28;20036;-86
2022/01/13 16:14:10;;;;;;;23.58;8.93;;;8.10;49.30;;;;;;6258736;28;20097;-84
2022/01/13 16:17:11;;;;;;;19.08;8.13;;;8.10;49.30;;;;;;6242046;28;20123;-84
2022/01/13 16:20:14;;;;;;;26.73;9.65;;;8.10;49.30;;;;;;6258854;28;20052;-86
2022/01/13 16:23:15;;;;;;;21.90;9.45;;;8.10;49.40;;;;;;6236751;28;20096;-83